sensor_id;sensor_type;location;lat;lon;timestamp;temperature;humidity
6520;DHT22;3293;51.690;5.982;2023-03-01T00:02:06;-1.20;99.90
6520;DHT22;3293;51.690;5.982;2023-03-01T00:07:06;-1.30;99.90
6520;DHT22;3293;51.690;5.982;2023-03-01T00:12:06;-1.40;99.90
6520;DHT22;3293;51.690;5.982;2023-03-01T00:17:06;-1.50;99.90
6520;DHT22;3293;51.690;5.982;2023-03-01T00:22:06;-1.60;99.90
6520;DHT22;3293;51.690;5.982;2023-03-01T00:27:06;-1.70;99.90
6520;DHT22;3293;51.690;5.982;2023-03-01T00:32:07;-1.80;99.90
6520;DHT22;3293;51.690;5.982;2023-03-01T00:37:07;-1.80;99.90
6520;DHT22;3293;51.690;5.982;2023-03-01T00:42:07;-1.90;99.90
6520;DHT22;3293;51.690;5.982;2023-03-01T00:47:07;-1.90;99.90
6520;DHT22;3293;51.690;5.982;2023-03-01T00:52:07;-2.00;99.90
6520;DHT22;3293;51.690;5.982;2023-03-01T00:57:07;-2.00;99.90
6520;DHT22;3293;51.690;5.982;2023-03-01T01:02:07;-2.10;99.90
6520;DHT22;3293;51.690;5.982;2023-03-01T01:07:06;-2.10;99.90
6520;DHT22;3293;51.690;5.982;2023-03-01T01:12:07;-2.20;99.90
6520;DHT22;3293;51.690;5.982;2023-03-01T01:17:07;-2.20;99.90
6520;DHT22;3293;51.690;5.982;2023-03-01T01:22:07;-2.20;99.90
6520;DHT22;3293;51.690;5.982;2023-03-01T01:27:07;-2.20;99.90
6520;DHT22;3293;51.690;5.982;2023-03-01T01:32:07;-2.30;99.90
6520;DHT22;3293;51.690;5.982;2023-03-01T01:37:07;-2.30;99.90
6520;DHT22;3293;51.690;5.982;2023-03-01T01:42:16;-2.40;99.90
6520;DHT22;3293;51.690;5.982;2023-03-01T01:47:18;-2.40;99.90
6520;DHT22;3293;51.690;5.982;2023-03-01T01:52:26;-2.50;99.90
6520;DHT22;3293;51.690;5.982;2023-03-01T01:57:42;-2.50;99.90
6520;DHT22;3293;51.690;5.982;2023-03-01T02:02:45;-2.50;99.90
6520;DHT22;3293;51.690;5.982;2023-03-01T02:07:47;-2.60;99.90
6520;DHT22;3293;51.690;5.982;2023-03-01T02:12:48;-2.60;99.90
6520;DHT22;3293;51.690;5.982;2023-03-01T02:17:48;-2.60;99.90
6520;DHT22;3293;51.690;5.982;2023-03-01T02:22:49;-2.60;99.90
6520;DHT22;3293;51.690;5.982;2023-03-01T02:28:19;-2.60;99.90
6520;DHT22;3293;51.690;5.982;2023-03-01T02:33:19;-2.60;99.90
6520;DHT22;3293;51.690;5.982;2023-03-01T02:38:19;-2.60;99.90
6520;DHT22;3293;51.690;5.982;2023-03-01T02:43:21;-2.70;99.90
6520;DHT22;3293;51.690;5.982;2023-03-01T02:48:22;-2.70;99.90
6520;DHT22;3293;51.690;5.982;2023-03-01T02:54:20;-2.70;99.90
6520;DHT22;3293;51.690;5.982;2023-03-01T02:58:58;-2.70;99.90
6520;DHT22;3293;51.690;5.982;2023-03-01T03:04:00;-2.70;99.90
6520;DHT22;3293;51.690;5.982;2023-03-01T03:09:00;-2.60;99.90
6520;DHT22;3293;51.690;5.982;2023-03-01T03:14:00;-2.60;99.90
6520;DHT22;3293;51.690;5.982;2023-03-01T03:19:01;-2.60;99.90
6520;DHT22;3293;51.690;5.982;2023-03-01T03:24:04;-2.60;99.90
6520;DHT22;3293;51.690;5.982;2023-03-01T03:29:04;-2.50;99.90
6520;DHT22;3293;51.690;5.982;2023-03-01T03:34:04;-2.50;99.90
6520;DHT22;3293;51.690;5.982;2023-03-01T03:39:04;-2.40;99.90
6520;DHT22;3293;51.690;5.982;2023-03-01T03:44:05;-2.50;99.90
6520;DHT22;3293;51.690;5.982;2023-03-01T03:49:05;-2.40;99.90
6520;DHT22;3293;51.690;5.982;2023-03-01T03:54:05;-2.40;99.90
6520;DHT22;3293;51.690;5.982;2023-03-01T03:59:05;-2.40;99.90
6520;DHT22;3293;51.690;5.982;2023-03-01T04:04:05;-2.50;99.90
6520;DHT22;3293;51.690;5.982;2023-03-01T04:09:07;-2.60;99.90
6520;DHT22;3293;51.690;5.982;2023-03-01T04:14:07;-2.70;99.90
6520;DHT22;3293;51.690;5.982;2023-03-01T04:19:07;-2.70;99.90
6520;DHT22;3293;51.690;5.982;2023-03-01T04:24:09;-2.80;99.90
6520;DHT22;3293;51.690;5.982;2023-03-01T04:29:09;-2.90;99.90
6520;DHT22;3293;51.690;5.982;2023-03-01T04:34:09;-2.90;99.90
6520;DHT22;3293;51.690;5.982;2023-03-01T04:39:08;-3.00;99.90
6520;DHT22;3293;51.690;5.982;2023-03-01T04:44:11;-3.00;99.90
6520;DHT22;3293;51.690;5.982;2023-03-01T04:49:12;-3.10;99.90
6520;DHT22;3293;51.690;5.982;2023-03-01T04:54:12;-3.10;99.90
6520;DHT22;3293;51.690;5.982;2023-03-01T04:59:12;-3.20;99.90
6520;DHT22;3293;51.690;5.982;2023-03-01T05:04:13;-3.20;99.90
6520;DHT22;3293;51.690;5.982;2023-03-01T05:09:12;-3.20;99.90
6520;DHT22;3293;51.690;5.982;2023-03-01T05:14:12;-3.20;99.90
6520;DHT22;3293;51.690;5.982;2023-03-01T05:19:12;-3.30;99.90
6520;DHT22;3293;51.690;5.982;2023-03-01T05:24:14;-3.30;99.90
6520;DHT22;3293;51.690;5.982;2023-03-01T05:29:14;-3.30;99.90
6520;DHT22;3293;51.690;5.982;2023-03-01T05:34:14;-3.30;99.90
6520;DHT22;3293;51.690;5.982;2023-03-01T05:39:14;-3.40;99.90
6520;DHT22;3293;51.690;5.982;2023-03-01T05:44:14;-3.40;99.90
6520;DHT22;3293;51.690;5.982;2023-03-01T05:49:14;-3.40;99.90
6520;DHT22;3293;51.690;5.982;2023-03-01T05:54:15;-3.40;99.90
6520;DHT22;3293;51.690;5.982;2023-03-01T05:59:15;-3.50;99.90
6520;DHT22;3293;51.690;5.982;2023-03-01T06:04:16;-3.50;99.90
6520;DHT22;3293;51.690;5.982;2023-03-01T06:09:16;-3.60;99.90
6520;DHT22;3293;51.690;5.982;2023-03-01T06:14:16;-3.60;99.90
6520;DHT22;3293;51.690;5.982;2023-03-01T06:19:16;-3.60;99.90
6520;DHT22;3293;51.690;5.982;2023-03-01T06:24:16;-3.60;99.90
6520;DHT22;3293;51.690;5.982;2023-03-01T06:29:15;-3.60;99.90
6520;DHT22;3293;51.690;5.982;2023-03-01T06:34:15;-3.40;99.90
6520;DHT22;3293;51.690;5.982;2023-03-01T06:39:15;-3.30;99.90
6520;DHT22;3293;51.690;5.982;2023-03-01T06:44:17;-3.30;99.90
6520;DHT22;3293;51.690;5.982;2023-03-01T06:49:17;-3.10;99.90
6520;DHT22;3293;51.690;5.982;2023-03-01T06:54:17;-2.90;99.90
6520;DHT22;3293;51.690;5.982;2023-03-01T06:59:17;-2.70;99.90
6520;DHT22;3293;51.690;5.982;2023-03-01T07:04:17;-2.60;99.90
6520;DHT22;3293;51.690;5.982;2023-03-01T07:09:17;-2.40;99.90
6520;DHT22;3293;51.690;5.982;2023-03-01T07:14:19;-2.10;99.90
6520;DHT22;3293;51.690;5.982;2023-03-01T07:19:20;-1.90;99.90
6520;DHT22;3293;51.690;5.982;2023-03-01T07:24:19;-1.60;99.90
6520;DHT22;3293;51.690;5.982;2023-03-01T07:29:20;-1.30;99.90
6520;DHT22;3293;51.690;5.982;2023-03-01T07:34:20;-1.00;99.90
6520;DHT22;3293;51.690;5.982;2023-03-01T07:39:20;-0.50;99.90
6520;DHT22;3293;51.690;5.982;2023-03-01T07:44:20;-0.10;99.90
6520;DHT22;3293;51.690;5.982;2023-03-01T07:49:20;0.30;99.90
6520;DHT22;3293;51.690;5.982;2023-03-01T07:54:20;0.70;99.90
6520;DHT22;3293;51.690;5.982;2023-03-01T07:59:20;1.20;99.90
6520;DHT22;3293;51.690;5.982;2023-03-01T08:04:20;1.80;99.90
6520;DHT22;3293;51.690;5.982;2023-03-01T08:09:20;2.50;99.90
6520;DHT22;3293;51.690;5.982;2023-03-01T08:14:20;3.50;99.90
6520;DHT22;3293;51.690;5.982;2023-03-01T08:19:20;4.10;99.90
6520;DHT22;3293;51.690;5.982;2023-03-01T08:24:20;4.50;98.90
6520;DHT22;3293;51.690;5.982;2023-03-01T08:29:21;4.70;97.90
6520;DHT22;3293;51.690;5.982;2023-03-01T08:34:21;5.00;97.60
6520;DHT22;3293;51.690;5.982;2023-03-01T08:39:21;5.20;96.10
6520;DHT22;3293;51.690;5.982;2023-03-01T08:44:21;5.10;94.50
6520;DHT22;3293;51.690;5.982;2023-03-01T08:49:21;4.40;95.80
6520;DHT22;3293;51.690;5.982;2023-03-01T08:54:22;4.10;99.90
6520;DHT22;3293;51.690;5.982;2023-03-01T08:59:22;3.70;99.90
6520;DHT22;3293;51.690;5.982;2023-03-01T09:04:22;3.50;99.90
6520;DHT22;3293;51.690;5.982;2023-03-01T09:09:22;3.20;99.90
6520;DHT22;3293;51.690;5.982;2023-03-01T09:14:22;3.20;99.90
6520;DHT22;3293;51.690;5.982;2023-03-01T09:19:22;3.20;99.90
6520;DHT22;3293;51.690;5.982;2023-03-01T09:24:23;3.20;99.90
6520;DHT22;3293;51.690;5.982;2023-03-01T09:29:23;3.20;99.90
6520;DHT22;3293;51.690;5.982;2023-03-01T09:34:23;3.20;99.40
6520;DHT22;3293;51.690;5.982;2023-03-01T09:39:23;3.20;99.20
6520;DHT22;3293;51.690;5.982;2023-03-01T09:49:40;3.30;98.10
6520;DHT22;3293;51.690;5.982;2023-03-01T09:54:42;3.40;97.10
6520;DHT22;3293;51.690;5.982;2023-03-01T10:04:55;3.80;97.00
6520;DHT22;3293;51.690;5.982;2023-03-01T10:09:59;3.80;93.30
6520;DHT22;3293;51.690;5.982;2023-03-01T10:15:16;3.80;93.00
6520;DHT22;3293;51.690;5.982;2023-03-01T10:20:42;3.90;90.30
6520;DHT22;3293;51.690;5.982;2023-03-01T10:31:00;4.00;89.70
6520;DHT22;3293;51.690;5.982;2023-03-01T10:36:01;4.10;91.00
6520;DHT22;3293;51.690;5.982;2023-03-01T10:41:06;4.20;86.90
6520;DHT22;3293;51.690;5.982;2023-03-01T10:51:28;4.30;90.40
6520;DHT22;3293;51.690;5.982;2023-03-01T10:56:28;4.40;88.70
6520;DHT22;3293;51.690;5.982;2023-03-01T11:01:33;4.40;85.00
6520;DHT22;3293;51.690;5.982;2023-03-01T11:06:35;4.50;86.40
6520;DHT22;3293;51.690;5.982;2023-03-01T11:11:36;4.50;80.90
6520;DHT22;3293;51.690;5.982;2023-03-01T11:16:38;4.60;83.70
6520;DHT22;3293;51.690;5.982;2023-03-01T11:26:50;4.60;81.20
6520;DHT22;3293;51.690;5.982;2023-03-01T11:31:52;4.70;80.40
6520;DHT22;3293;51.690;5.982;2023-03-01T11:36:58;4.80;78.60
6520;DHT22;3293;51.690;5.982;2023-03-01T11:42:15;4.80;74.60
6520;DHT22;3293;51.690;5.982;2023-03-01T12:03:22;5.20;77.80
6520;DHT22;3293;51.690;5.982;2023-03-01T12:08:26;5.30;66.90
6520;DHT22;3293;51.690;5.982;2023-03-01T12:19:50;5.40;71.30
6520;DHT22;3293;51.690;5.982;2023-03-01T12:25:19;5.40;74.80
6520;DHT22;3293;51.690;5.982;2023-03-01T12:30:42;5.50;68.90
6520;DHT22;3293;51.690;5.982;2023-03-01T12:40:53;5.60;69.20
6520;DHT22;3293;51.690;5.982;2023-03-01T12:46:21;5.70;65.50
6520;DHT22;3293;51.690;5.982;2023-03-01T12:51:29;5.70;70.60
6520;DHT22;3293;51.690;5.982;2023-03-01T12:56:35;5.80;66.40
6520;DHT22;3293;51.690;5.982;2023-03-01T13:07:11;5.90;61.50
6520;DHT22;3293;51.690;5.982;2023-03-01T13:33:50;6.20;53.60
6520;DHT22;3293;51.690;5.982;2023-03-01T13:43:57;6.20;58.20
6520;DHT22;3293;51.690;5.982;2023-03-01T13:48:57;6.20;51.40
6520;DHT22;3293;51.690;5.982;2023-03-01T13:53:58;6.30;53.30
6520;DHT22;3293;51.690;5.982;2023-03-01T13:59:02;6.30;53.10
6520;DHT22;3293;51.690;5.982;2023-03-01T14:04:21;6.30;54.40
6520;DHT22;3293;51.690;5.982;2023-03-01T14:09:25;6.40;52.90
6520;DHT22;3293;51.690;5.982;2023-03-01T14:19:44;6.40;51.40
6520;DHT22;3293;51.690;5.982;2023-03-01T14:24:51;6.40;53.20
6520;DHT22;3293;51.690;5.982;2023-03-01T14:30:00;6.50;54.70
6520;DHT22;3293;51.690;5.982;2023-03-01T14:35:00;6.50;53.20
6520;DHT22;3293;51.690;5.982;2023-03-01T14:40:03;6.50;52.50
6520;DHT22;3293;51.690;5.982;2023-03-01T14:45:04;6.50;55.00
6520;DHT22;3293;51.690;5.982;2023-03-01T14:50:30;6.50;49.70
6520;DHT22;3293;51.690;5.982;2023-03-01T14:55:38;6.50;50.90
6520;DHT22;3293;51.690;5.982;2023-03-01T15:00:57;6.50;48.20
6520;DHT22;3293;51.690;5.982;2023-03-01T15:16:16;6.40;52.40
6520;DHT22;3293;51.690;5.982;2023-03-01T15:21:22;6.50;50.60
6520;DHT22;3293;51.690;5.982;2023-03-01T15:26:37;6.50;49.80
6520;DHT22;3293;51.690;5.982;2023-03-01T15:31:38;6.50;50.30
6520;DHT22;3293;51.690;5.982;2023-03-01T15:36:45;6.40;52.50
6520;DHT22;3293;51.690;5.982;2023-03-01T15:41:48;6.40;51.50
6520;DHT22;3293;51.690;5.982;2023-03-01T15:46:48;6.40;50.20
6520;DHT22;3293;51.690;5.982;2023-03-01T15:51:54;6.30;51.70
6520;DHT22;3293;51.690;5.982;2023-03-01T15:56:55;6.30;50.80
6520;DHT22;3293;51.690;5.982;2023-03-01T16:01:54;6.30;49.30
6520;DHT22;3293;51.690;5.982;2023-03-01T16:06:55;6.30;49.50
6520;DHT22;3293;51.690;5.982;2023-03-01T16:11:55;6.30;50.10
6520;DHT22;3293;51.690;5.982;2023-03-01T16:16:55;6.30;52.40
6520;DHT22;3293;51.690;5.982;2023-03-01T16:21:55;6.20;50.30
6520;DHT22;3293;51.690;5.982;2023-03-01T16:26:55;6.10;52.40
6520;DHT22;3293;51.690;5.982;2023-03-01T16:31:55;6.10;49.00
6520;DHT22;3293;51.690;5.982;2023-03-01T16:36:55;6.10;50.00
6520;DHT22;3293;51.690;5.982;2023-03-01T16:41:55;6.00;52.60
6520;DHT22;3293;51.690;5.982;2023-03-01T16:46:55;5.90;54.20
6520;DHT22;3293;51.690;5.982;2023-03-01T16:51:55;5.80;56.80
6520;DHT22;3293;51.690;5.982;2023-03-01T16:56:55;5.70;59.30
6520;DHT22;3293;51.690;5.982;2023-03-01T17:01:55;5.60;62.60
6520;DHT22;3293;51.690;5.982;2023-03-01T17:06:55;5.60;62.70
6520;DHT22;3293;51.690;5.982;2023-03-01T17:11:55;5.40;64.10
6520;DHT22;3293;51.690;5.982;2023-03-01T17:16:55;5.30;66.70
6520;DHT22;3293;51.690;5.982;2023-03-01T17:21:55;5.10;66.90
6520;DHT22;3293;51.690;5.982;2023-03-01T17:26:55;5.00;68.00
6520;DHT22;3293;51.690;5.982;2023-03-01T17:31:55;4.80;70.10
6520;DHT22;3293;51.690;5.982;2023-03-01T17:36:55;4.70;72.30
6520;DHT22;3293;51.690;5.982;2023-03-01T17:41:56;4.50;75.60
6520;DHT22;3293;51.690;5.982;2023-03-01T17:46:56;4.40;76.10
6520;DHT22;3293;51.690;5.982;2023-03-01T17:51:56;4.30;74.80
6520;DHT22;3293;51.690;5.982;2023-03-01T17:56:56;4.30;74.90
6520;DHT22;3293;51.690;5.982;2023-03-01T18:01:57;4.20;77.70
6520;DHT22;3293;51.690;5.982;2023-03-01T18:06:57;4.10;80.90
6520;DHT22;3293;51.690;5.982;2023-03-01T18:11:57;4.10;84.00
6520;DHT22;3293;51.690;5.982;2023-03-01T18:16:57;3.90;85.80
6520;DHT22;3293;51.690;5.982;2023-03-01T18:21:57;3.80;88.80
6520;DHT22;3293;51.690;5.982;2023-03-01T18:26:57;3.80;89.10
6520;DHT22;3293;51.690;5.982;2023-03-01T18:31:57;3.60;91.20
6520;DHT22;3293;51.690;5.982;2023-03-01T18:36:57;3.60;91.50
6520;DHT22;3293;51.690;5.982;2023-03-01T18:41:57;3.50;92.70
6520;DHT22;3293;51.690;5.982;2023-03-01T18:46:57;3.40;94.30
6520;DHT22;3293;51.690;5.982;2023-03-01T18:51:57;3.20;95.60
6520;DHT22;3293;51.690;5.982;2023-03-01T18:56:57;3.10;97.20
6520;DHT22;3293;51.690;5.982;2023-03-01T19:01:57;3.10;98.00
6520;DHT22;3293;51.690;5.982;2023-03-01T19:06:57;3.00;99.20
6520;DHT22;3293;51.690;5.982;2023-03-01T19:12:00;3.00;99.80
6520;DHT22;3293;51.690;5.982;2023-03-01T19:17:02;3.10;99.70
6520;DHT22;3293;51.690;5.982;2023-03-01T19:22:02;3.10;99.90
6520;DHT22;3293;51.690;5.982;2023-03-01T19:27:02;2.90;99.90
6520;DHT22;3293;51.690;5.982;2023-03-01T19:32:02;2.70;99.90
6520;DHT22;3293;51.690;5.982;2023-03-01T19:37:02;2.80;99.90
6520;DHT22;3293;51.690;5.982;2023-03-01T19:42:03;2.80;99.90
6520;DHT22;3293;51.690;5.982;2023-03-01T19:47:03;2.70;99.90
6520;DHT22;3293;51.690;5.982;2023-03-01T19:52:03;2.70;99.90
6520;DHT22;3293;51.690;5.982;2023-03-01T19:57:03;2.70;99.90
6520;DHT22;3293;51.690;5.982;2023-03-01T20:02:04;2.70;99.90
6520;DHT22;3293;51.690;5.982;2023-03-01T20:07:03;2.70;99.90
6520;DHT22;3293;51.690;5.982;2023-03-01T20:12:03;2.70;99.90
6520;DHT22;3293;51.690;5.982;2023-03-01T20:17:04;2.70;99.90
6520;DHT22;3293;51.690;5.982;2023-03-01T20:22:04;2.70;99.90
6520;DHT22;3293;51.690;5.982;2023-03-01T20:27:04;2.70;99.90
6520;DHT22;3293;51.690;5.982;2023-03-01T20:32:04;2.70;99.90
6520;DHT22;3293;51.690;5.982;2023-03-01T20:37:04;2.70;99.90
6520;DHT22;3293;51.690;5.982;2023-03-01T20:42:04;2.60;99.90
6520;DHT22;3293;51.690;5.982;2023-03-01T20:47:04;2.60;99.90
6520;DHT22;3293;51.690;5.982;2023-03-01T20:52:04;2.50;99.90
6520;DHT22;3293;51.690;5.982;2023-03-01T20:57:05;2.50;99.90
6520;DHT22;3293;51.690;5.982;2023-03-01T21:02:05;2.40;99.90
6520;DHT22;3293;51.690;5.982;2023-03-01T21:07:05;2.40;99.90
6520;DHT22;3293;51.690;5.982;2023-03-01T21:12:05;2.40;99.90
6520;DHT22;3293;51.690;5.982;2023-03-01T21:17:09;2.50;99.90
6520;DHT22;3293;51.690;5.982;2023-03-01T21:22:11;2.40;99.90
6520;DHT22;3293;51.690;5.982;2023-03-01T21:27:12;2.30;99.90
6520;DHT22;3293;51.690;5.982;2023-03-01T21:32:13;2.10;99.90
6520;DHT22;3293;51.690;5.982;2023-03-01T21:37:13;2.10;99.90
6520;DHT22;3293;51.690;5.982;2023-03-01T21:42:13;2.00;99.90
6520;DHT22;3293;51.690;5.982;2023-03-01T21:47:13;2.10;99.90
6520;DHT22;3293;51.690;5.982;2023-03-01T21:52:13;2.20;99.90
6520;DHT22;3293;51.690;5.982;2023-03-01T21:57:15;2.10;99.90
6520;DHT22;3293;51.690;5.982;2023-03-01T22:02:16;2.10;99.90
6520;DHT22;3293;51.690;5.982;2023-03-01T22:07:16;2.10;99.90
6520;DHT22;3293;51.690;5.982;2023-03-01T22:12:16;2.00;99.90
6520;DHT22;3293;51.690;5.982;2023-03-01T22:17:16;2.00;99.90
6520;DHT22;3293;51.690;5.982;2023-03-01T22:22:16;2.00;99.90
6520;DHT22;3293;51.690;5.982;2023-03-01T22:27:16;1.90;99.90
6520;DHT22;3293;51.690;5.982;2023-03-01T22:32:15;1.80;99.90
6520;DHT22;3293;51.690;5.982;2023-03-01T22:37:16;1.90;99.90
6520;DHT22;3293;51.690;5.982;2023-03-01T22:42:16;1.90;99.90
6520;DHT22;3293;51.690;5.982;2023-03-01T22:47:16;1.70;99.90
6520;DHT22;3293;51.690;5.982;2023-03-01T22:52:16;1.70;99.90
6520;DHT22;3293;51.690;5.982;2023-03-01T22:57:16;1.60;99.90
6520;DHT22;3293;51.690;5.982;2023-03-01T23:02:16;1.60;99.90
6520;DHT22;3293;51.690;5.982;2023-03-01T23:07:16;1.70;99.90
6520;DHT22;3293;51.690;5.982;2023-03-01T23:12:16;1.70;99.90
6520;DHT22;3293;51.690;5.982;2023-03-01T23:17:16;1.70;99.90
6520;DHT22;3293;51.690;5.982;2023-03-01T23:22:17;1.60;99.90
6520;DHT22;3293;51.690;5.982;2023-03-01T23:27:18;1.60;99.90
6520;DHT22;3293;51.690;5.982;2023-03-01T23:32:17;1.50;99.90
6520;DHT22;3293;51.690;5.982;2023-03-01T23:37:18;1.50;99.90
6520;DHT22;3293;51.690;5.982;2023-03-01T23:42:18;1.40;99.90
6520;DHT22;3293;51.690;5.982;2023-03-01T23:47:18;1.40;99.90
6520;DHT22;3293;51.690;5.982;2023-03-01T23:52:18;1.40;99.90
6520;DHT22;3293;51.690;5.982;2023-03-01T23:57:18;1.40;99.90
